Latest Weather Observations for Grafton AgRS

IDN60801

Issued at 9:35 pm EST Saturday 20 September 2014 (issued every 30 minutes, with the page automatically refreshed every 10 minutes)

About weather observations | Map of weather stations | Latest weather observations for NSW | Other Formats
Station Details ID: 058077 Name: GRAFTON RESEARCH STN Lat: -29.62 Lon: 152.96 Height: 25.0 m
Data from the previous 72 hours. | See also: Recent months for locations in New South Wales
Date/Time
EST
Temp
°C
App
Temp
°C
Dew
Point
Rel
Hum
%
Delta-T
°C
Wind Press
QNH
hPa
Press
MSL
hPa
Rain
since 9 am
mm
Dir
 
Spd
km/h
Gust
km/h
Spd
kts
Gust
kts
20/09:30pm 13.3 11.5 7.3 67 2.9 W 6 7 3 4 - - 0.2
20/09:00pm 14.2 12.2 7.0 62 3.5 S 7 9 4 5 - - 0.2
20/08:30pm 13.8 12.0 7.3 65 3.2 WSW 6 7 3 4 - - 0.2
20/08:00pm 14.2 12.5 7.7 65 3.2 S 6 9 3 5 - - 0.2
20/07:30pm 14.3 13.6 8.7 69 2.8 SE 2 6 1 3 - - 0.2
20/07:00pm 14.8 13.2 8.1 64 3.4 SE 6 7 3 4 - - 0.2
20/06:30pm 15.4 14.5 7.9 61 3.8 ESE 2 7 1 4 - - 0.2
20/06:00pm 16.1 12.8 8.1 59 4.0 ESE 15 17 8 9 - - 0.2
20/05:30pm 16.7 13.7 7.6 55 4.6 ESE 13 17 7 9 - - 0.2
20/05:00pm 17.5 13.6 7.0 50 5.2 ESE 17 22 9 12 - - 0.2
20/04:30pm 18.6 14.7 8.6 52 5.2 E 19 26 10 14 - - 0.2
20/04:00pm 19.5 15.6 8.8 50 5.6 ESE 19 26 10 14 - - 0.2
20/03:30pm 19.9 15.8 10.0 53 5.3 SE 22 30 12 16 - - 0.2
20/03:00pm 20.6 17.1 11.0 54 5.3 ESE 20 28 11 15 - - 0.2
20/02:30pm 20.8 17.2 10.6 52 5.6 SE 20 28 11 15 - - 0.2
20/02:00pm 19.5 16.0 10.8 57 4.7 ESE 20 28 11 15 - - 0.2
20/01:30pm 20.2 15.9 10.6 54 5.2 SE 24 33 13 18 - - 0.2
20/01:00pm 20.5 18.0 8.2 45 6.4 E 11 20 6 11 - - 0.2
20/12:30pm 20.9 18.9 10.1 50 5.8 SE 11 19 6 10 - - 0.2
20/12:00pm 19.7 18.6 10.7 56 4.9 N 7 13 4 7 - - 0.2
20/11:30am 20.2 18.7 10.6 54 5.2 E 9 13 5 7 - - 0.2
20/11:00am 19.8 19.0 11.0 57 4.8 WSW 6 13 3 7 - - 0.2
20/10:30am 19.5 18.1 12.3 63 4.0 S 11 17 6 9 - - 0.0
20/10:00am 18.7 17.3 11.0 61 4.2 SSE 9 15 5 8 - - 0.0
20/09:30am 18.4 17.8 12.4 68 3.3 SSW 7 13 4 7 - - 0.0
20/09:00am 17.7 17.3 13.0 74 2.6 W 7 17 4 9 - - 16.6
20/08:30am 16.7 15.9 12.8 78 2.2 W 9 13 5 7 - - 16.6
20/08:00am 15.9 15.1 13.0 83 1.6 W 9 13 5 7 - - 16.6
20/07:30am 14.7 13.9 12.9 89 1.0 WSW 9 11 5 6 - - 16.6
20/07:00am 13.6 13.7 12.8 95 0.4 WNW 4 7 2 4 - - 16.6
20/06:30am 12.2 11.5 11.9 98 0.2 WSW 7 13 4 7 - - 16.6
20/06:00am 11.5 9.7 11.0 97 0.3 W 11 15 6 8 - - 16.6
20/05:30am 11.8 10.9 11.3 97 0.3 WNW 7 9 4 5 - - 16.6
20/05:00am 12.0 10.8 11.5 97 0.3 NNW 9 11 5 6 - - 16.6
20/04:30am 11.9 10.6 11.3 96 0.3 WNW 9 11 5 6 - - 16.6
20/04:00am 11.9 10.9 11.0 94 0.5 W 7 9 4 5 - - 16.6
20/03:30am 12.1 10.8 11.3 95 0.4 W 9 11 5 6 - - 16.6
20/03:00am 12.6 11.8 11.8 95 0.4 WNW 7 9 4 5 - - 16.6
20/02:30am 12.8 12.3 12.0 95 0.4 W 6 7 3 4 - - 16.6
20/02:00am 12.8 12.6 11.9 94 0.5 SE 4 7 2 4 - - 16.6
20/01:30am 12.7 11.9 11.6 93 0.6 ESE 7 11 4 6 - - 16.6
20/01:00am 12.8 11.7 11.9 94 0.5 SE 9 13 5 7 - - 16.6
20/12:30am 12.6 11.5 12.0 96 0.3 S 9 11 5 6 - - 16.6
20/12:00am 12.7 12.2 12.1 96 0.3 WSW 6 9 3 5 - - 16.6
 
Date/Time
EST
Temp
°C
App
Temp
°C
Dew
Point
Rel
Hum
%
Delta-T
°C
Wind Press
QNH
hPa
Press
MSL
hPa
Rain
since 9 am
mm
Dir
 
Spd
km/h
Gust
km/h
Spd
kts
Gust
kts
19/11:30pm 12.5 13.0 11.6 94 0.5 CALM 0 6 0 3 - - 16.6
19/11:00pm 12.9 11.8 12.1 95 0.4 ESE 9 11 5 6 - - 16.6
19/10:30pm 13.2 11.2 12.6 96 0.3 SE 15 19 8 10 - - 16.6
19/10:00pm 12.7 9.1 11.9 95 0.4 SSW 22 37 12 20 - - 15.2
19/09:45pm 14.4 8.9 12.6 89 1.0 WSW 33 44 18 24 - - 8.0
19/09:30pm 15.4 14.1 11.4 77 2.1 S 9 13 5 7 - - 0.0
19/09:00pm 15.7 14.4 11.3 75 2.4 ESE 9 11 5 6 - - 0.0
19/08:30pm 15.7 14.9 11.1 74 2.5 SE 6 7 3 4 - - 0.0
19/08:00pm 15.8 14.9 11.2 74 2.5 SSW 7 9 4 5 - - 0.0
19/07:30pm 15.5 14.8 11.5 77 2.2 SSW 6 7 3 4 - - 0.0
19/07:00pm 15.5 14.8 11.5 77 2.2 SE 6 9 3 5 - - 0.0
19/06:30pm 16.5 15.5 11.0 70 3.0 E 7 7 4 4 - - 0.0
19/06:00pm 17.2 15.4 11.0 67 3.3 E 11 13 6 7 - - 0.0
19/05:30pm 18.0 15.7 10.6 62 4.0 ENE 13 20 7 11 - - 0.0
19/05:00pm 19.3 16.6 10.3 56 4.8 ENE 15 24 8 13 - - 0.0
19/04:30pm 20.3 17.7 10.7 54 5.2 ENE 15 26 8 14 - - 0.0
19/04:00pm 20.8 18.5 10.3 51 5.7 NE 13 26 7 14 - - 0.0
19/03:30pm 21.5 19.0 11.2 52 5.7 ENE 15 26 8 14 - - 0.0
19/03:00pm 21.7 18.9 11.4 52 5.7 E 17 33 9 18 - - 0.0
19/02:30pm 22.4 19.5 8.1 40 7.5 ENE 13 20 7 11 - - 0.0
19/02:00pm 22.4 19.3 7.4 38 7.8 E 13 19 7 10 - - 0.0
19/01:30pm 21.6 18.7 6.3 37 7.7 E 11 17 6 9 - - 0.0
19/01:00pm 21.3 18.9 7.2 40 7.2 E 9 20 5 11 - - 0.0
19/12:30pm 21.7 19.4 8.9 44 6.8 SE 11 15 6 8 - - 0.0
19/12:00pm 21.1 19.7 9.7 48 6.1 E 7 15 4 8 - - 0.0
19/11:30am 21.5 20.3 12.9 58 4.9 E 11 15 6 8 - - 0.0
19/11:00am 20.5 19.5 10.3 52 5.5 N 6 13 3 7 - - 0.0
19/10:30am 19.7 18.4 9.9 53 5.2 SSE 7 15 4 8 - - 0.0
19/10:00am 18.7 17.4 9.2 54 5.0 SE 6 9 3 5 - - 0.0
19/09:30am 17.4 15.9 8.5 56 4.6 SW 6 9 3 5 - - 0.0
19/09:00am 15.9 14.2 8.2 60 3.9 SW 7 13 4 7 - - 0.0
19/08:30am 14.3 11.9 8.5 68 2.9 WSW 11 13 6 7 - - 0.0
19/08:00am 12.5 10.4 8.2 75 2.1 WSW 9 13 5 7 - - 0.0
19/07:30am 11.5 9.5 8.5 82 1.5 W 9 11 5 6 - - 0.0
19/07:00am 10.1 7.9 7.7 85 1.2 W 9 11 5 6 - - 0.0
19/06:30am 8.5 6.1 6.8 89 0.8 WNW 9 15 5 8 - - 0.0
19/06:00am 7.7 4.8 6.3 91 0.6 WNW 11 15 6 8 - - 0.0
19/05:30am 8.1 5.6 6.4 89 0.8 W 9 11 5 6 - - 0.0
19/05:00am 8.1 5.2 6.6 90 0.7 W 11 13 6 7 - - 0.0
19/04:30am 7.5 4.9 6.0 90 0.7 WNW 9 11 5 6 - - 0.0
19/04:00am 7.7 5.6 6.6 93 0.5 W 7 11 4 6 - - 0.0
19/03:30am 8.0 6.1 6.6 91 0.6 W 6 7 3 4 - - 0.0
19/03:00am 8.4 6.4 6.9 90 0.7 WNW 7 9 4 5 - - 0.0
19/02:30am 8.5 6.1 6.8 89 0.8 W 9 11 5 6 - - 0.0
19/02:00am 8.8 6.4 6.8 87 0.9 WNW 9 11 5 6 - - 0.0
19/01:30am 9.3 7.4 6.7 84 1.2 WNW 6 9 3 5 - - 0.0
19/01:00am 9.6 7.6 6.9 83 1.3 WNW 7 11 4 6 - - 0.0
19/12:30am 9.9 7.8 6.8 81 1.5 WNW 7 11 4 6 - - 0.0
19/12:00am 10.0 7.6 6.9 81 1.5 WNW 9 11 5 6 - - 0.0
 
Date/Time
EST
Temp
°C
App
Temp
°C
Dew
Point
Rel
Hum
%
Delta-T
°C
Wind Press
QNH
hPa
Press
MSL
hPa
Rain
since 9 am
mm
Dir
 
Spd
km/h
Gust
km/h
Spd
kts
Gust
kts
18/11:30pm 10.5 8.6 7.4 81 1.5 W 7 9 4 5 - - 0.0
18/11:00pm 11.6 9.3 7.3 75 2.1 WNW 9 11 5 6 - - 0.0
18/10:30pm 11.4 9.1 7.3 76 2.0 W 9 11 5 6 - - 0.0
18/10:00pm 13.1 11.1 7.1 67 2.9 W 7 7 4 4 - - 0.0
18/09:30pm 13.2 11.3 7.6 69 2.7 WNW 7 7 4 4 - - 0.0
18/09:00pm 13.5 11.8 7.5 67 2.9 WSW 6 7 3 4 - - 0.0
18/08:30pm 13.9 12.1 7.2 64 3.3 WSW 6 7 3 4 - - 0.0
18/08:00pm 14.2 12.4 7.0 62 3.5 WSW 6 7 3 4 - - 0.0
18/07:30pm 14.1 13.5 7.2 63 3.4 CALM 0 0 0 0 - - 0.0
18/07:00pm 14.5 14.0 7.8 64 3.3 CALM 0 0 0 0 - - 0.0
18/06:30pm 15.6 13.6 7.1 57 4.2 ESE 7 9 4 5 - - 0.0
18/06:00pm 16.2 13.8 6.9 54 4.6 E 9 9 5 5 - - 0.0
18/05:30pm 17.3 14.1 6.8 50 5.2 E 13 15 7 8 - - 0.0
18/05:00pm 18.7 15.0 6.2 44 6.2 E 15 20 8 11 - - 0.0
18/04:30pm 19.7 15.5 5.7 40 6.9 E 17 24 9 13 - - 0.0
18/04:00pm 20.5 16.1 4.9 36 7.6 E 17 24 9 13 - - 0.0
18/03:30pm 21.2 16.4 5.5 36 7.8 E 20 28 11 15 - - 0.0
18/03:00pm 21.8 16.9 5.3 34 8.2 E 20 33 11 18 - - 0.0
18/02:30pm 23.5 19.5 2.9 26 9.9 E 13 20 7 11 - - 0.0
18/02:00pm 23.1 19.4 4.6 30 9.2 ESE 13 20 7 11 - - 0.0
18/01:30pm 23.7 20.3 4.1 28 9.6 E 11 17 6 9 - - 0.0
18/01:00pm 22.5 18.7 1.5 25 9.8 ESE 11 17 6 9 - - 0.0
18/12:30pm 22.1 17.9 1.7 26 9.5 E 13 20 7 11 - - 0.0
18/12:00pm 22.5 19.3 3.1 28 9.3 SSE 9 13 5 7 - - 0.0
18/11:30am 22.5 19.6 2.6 27 9.4 WNW 7 11 4 6 - - 0.0
18/11:00am 21.5 16.2 3.2 30 8.7 S 20 28 11 15 - - 0.0
18/10:30am 21.0 16.8 3.7 32 8.3 W 15 26 8 14 - - 0.0
18/10:00am 20.5 16.0 2.3 30 8.5 WSW 15 24 8 13 - - 0.0
18/09:30am 19.2 14.0 3.4 35 7.4 WSW 20 28 11 15 - - 0.0
18/09:00am 18.7 13.9 4.5 39 6.8 WSW 19 33 10 18 - - 0.0
18/08:30am 18.3 14.1 5.8 44 6.1 W 17 22 9 12 - - 0.0
18/08:00am 16.9 13.7 6.7 51 5.0 WNW 13 17 7 9 - - 0.0
18/07:30am 14.9 12.8 6.5 57 4.1 W 7 9 4 5 - - 0.0
18/07:00am 12.9 10.2 5.8 62 3.3 W 9 13 5 7 - - 0.0
18/06:30am 10.7 7.7 5.9 72 2.2 W 11 13 6 7 - - 0.0
18/06:00am 10.1 7.4 5.7 74 2.0 WNW 9 11 5 6 - - 0.0
18/05:30am 9.8 8.7 5.0 72 2.2 CALM 0 4 0 2 - - 0.0
18/05:00am 10.5 7.6 4.9 68 2.5 W 9 15 5 8 - - 0.0
18/04:30am 11.4 7.8 5.1 65 2.9 W 13 15 7 8 - - 0.0
18/04:00am 11.9 8.3 4.9 62 3.2 W 13 17 7 9 - - 0.0
18/03:30am 12.0 8.4 5.0 62 3.2 W 13 15 7 8 - - 0.0
18/03:00am 12.0 9.6 5.2 63 3.1 W 7 11 4 6 - - 0.0
18/02:30am 11.8 8.7 5.7 66 2.8 W 11 15 6 8 - - 0.0
18/02:00am 13.3 10.1 5.0 57 3.9 WNW 11 13 6 7 - - 0.0
18/01:30am 14.1 11.4 5.7 57 4.0 WNW 9 13 5 7 - - 0.0
18/01:00am 13.4 10.8 7.8 69 2.8 WNW 11 13 6 7 - - 0.0
18/12:30am 12.0 10.6 8.7 80 1.6 W 6 7 3 4 - - 0.0
18/12:00am 12.3 11.6 9.9 85 1.2 SE 4 7 2 4 - - 0.0
 
Date/Time
EST
Temp
°C
App
Temp
°C
Dew
Point
Rel
Hum
%
Delta-T
°C
Wind Press
QNH
hPa
Press
MSL
hPa
Rain
since 9 am
mm
Dir
 
Spd
km/h
Gust
km/h
Spd
kts
Gust
kts
17/11:30pm 14.8 13.4 9.0 68 3.0 WSW 6 9 3 5 - - 0.0
17/11:00pm 15.8 15.0 9.7 67 3.2 WNW 4 7 2 4 - - 0.0
17/10:30pm 15.6 13.9 9.9 69 3.0 W 9 11 5 6 - - 0.0
17/10:00pm 15.8 14.4 10.8 72 2.7 W 9 11 5 6 - - 0.0

Other Formats:

Comma delimited format used in spreadsheet applications
http://www.bom.gov.au/fwo/IDN60801/IDN60801.95571.axf

JavaScript Object Notation format (JSON) in row-major order
http://www.bom.gov.au/fwo/IDN60801/IDN60801.95571.json